createdAt,value
2018-06-25T00:00:39.319Z,17.6
2018-06-25T00:01:39.256Z,17.6
2018-06-25T00:02:39.252Z,17.63
2018-06-25T00:03:39.280Z,17.66
2018-06-25T00:04:39.351Z,17.67
2018-06-25T00:05:39.251Z,17.7
2018-06-25T00:06:39.248Z,17.74
2018-06-25T00:07:39.259Z,17.73
2018-06-25T00:08:39.293Z,17.69
2018-06-25T00:09:39.240Z,17.7
2018-06-25T00:10:39.236Z,17.63
2018-06-25T00:11:39.251Z,17.66
2018-06-25T00:12:39.241Z,17.66
2018-06-25T00:13:39.348Z,17.63
2018-06-25T00:14:39.235Z,17.63
2018-06-25T00:15:39.258Z,17.64
2018-06-25T00:16:39.246Z,17.58
2018-06-25T00:17:39.244Z,17.61
2018-06-25T00:18:39.250Z,17.52
2018-06-25T00:19:39.277Z,17.53
2018-06-25T00:20:39.253Z,17.53
2018-06-25T00:21:39.251Z,17.52
2018-06-25T00:22:39.262Z,17.57
2018-06-25T00:23:39.262Z,17.54
2018-06-25T00:24:39.236Z,17.57
2018-06-25T00:25:39.327Z,17.6
2018-06-25T00:26:39.242Z,17.6
2018-06-25T00:27:39.248Z,17.58
2018-06-25T00:28:39.243Z,17.58
2018-06-25T00:29:39.270Z,17.58
2018-06-25T00:30:39.287Z,17.61
2018-06-25T00:31:39.249Z,17.61
2018-06-25T00:32:39.254Z,17.61
2018-06-25T00:33:39.308Z,17.61
2018-06-25T00:34:39.331Z,17.63
2018-06-25T00:35:39.325Z,17.66
2018-06-25T00:36:39.268Z,17.63
2018-06-25T00:37:39.264Z,17.53
2018-06-25T00:38:39.278Z,17.53
2018-06-25T00:39:39.453Z,17.52
2018-06-25T00:40:39.353Z,17.47
2018-06-25T00:41:39.283Z,17.43
2018-06-25T00:42:39.282Z,17.43
2018-06-25T00:43:39.265Z,17.44
2018-06-25T00:44:39.303Z,17.43
2018-06-25T00:45:39.256Z,17.4
2018-06-25T00:46:39.313Z,17.46
2018-06-25T00:47:39.348Z,17.43
2018-06-25T00:48:39.413Z,17.32
2018-06-25T00:49:39.261Z,17.39
2018-06-25T00:50:39.462Z,17.42
2018-06-25T00:51:39.296Z,17.42
2018-06-25T00:52:39.270Z,17.4
2018-06-25T00:53:39.310Z,17.44
2018-06-25T00:54:39.275Z,17.42
2018-06-25T00:55:39.246Z,17.4
2018-06-25T00:56:39.285Z,17.42
2018-06-25T00:57:39.318Z,17.43
2018-06-25T00:58:39.529Z,17.32
2018-06-25T00:59:39.381Z,17.32
2018-06-25T01:00:39.450Z,17.29
2018-06-25T01:01:40.394Z,17.23
2018-06-25T01:02:39.286Z,17.25
2018-06-25T01:03:39.291Z,17.23
2018-06-25T01:04:39.647Z,17.26
2018-06-25T01:05:39.294Z,17.29
2018-06-25T01:06:39.370Z,17.32
2018-06-25T01:07:39.303Z,17.22
2018-06-25T01:08:39.284Z,17.15
2018-06-25T01:09:39.290Z,17.14
2018-06-25T01:10:39.322Z,17.15
2018-06-25T01:11:39.296Z,17.15
2018-06-25T01:12:39.388Z,17.16
2018-06-25T01:13:39.277Z,17.18
2018-06-25T01:14:39.270Z,17.21
2018-06-25T01:15:39.349Z,17.22
2018-06-25T01:16:39.295Z,17.22
2018-06-25T01:17:39.291Z,17.16
2018-06-25T01:18:39.284Z,17.18
2018-06-25T01:19:39.376Z,17.22
2018-06-25T01:20:39.431Z,17.23
2018-06-25T01:21:39.405Z,17.25
2018-06-25T01:22:39.474Z,17.23
2018-06-25T01:23:39.370Z,17.22
2018-06-25T01:24:39.456Z,17.18
2018-06-25T01:25:39.304Z,17.12
2018-06-25T01:26:39.291Z,17.19
2018-06-25T01:27:39.297Z,17.22
2018-06-25T01:28:39.302Z,17.14
2018-06-25T01:29:39.310Z,17.14
2018-06-25T01:30:39.365Z,17.14
2018-06-25T01:31:39.354Z,17.14
2018-06-25T01:32:39.290Z,17.19
2018-06-25T01:33:39.307Z,17.19
2018-06-25T01:34:39.317Z,17.21
2018-06-25T01:35:39.293Z,17.18
2018-06-25T01:36:39.288Z,17.22
2018-06-25T01:37:39.283Z,17.16
2018-06-25T01:38:39.292Z,17.19
2018-06-25T01:39:39.320Z,17.21
2018-06-25T01:40:39.298Z,17.15
2018-06-25T01:41:39.309Z,17.18
2018-06-25T01:42:39.313Z,17.12
2018-06-25T01:43:39.465Z,17.11
2018-06-25T01:44:39.328Z,17.09
2018-06-25T01:45:39.334Z,17.11
2018-06-25T01:46:39.343Z,17.12
2018-06-25T01:47:39.374Z,17.14
2018-06-25T01:48:39.306Z,17.12
2018-06-25T01:49:39.318Z,17.16
2018-06-25T01:50:39.338Z,17.11
2018-06-25T01:51:39.323Z,17.11
2018-06-25T01:52:39.339Z,17.09
2018-06-25T01:53:39.362Z,17.08
2018-06-25T01:54:39.325Z,17.05
2018-06-25T01:55:39.327Z,17.07
2018-06-25T01:56:39.311Z,17.04
2018-06-25T01:57:39.472Z,16.99
2018-06-25T01:58:39.453Z,16.91
2018-06-25T01:59:39.323Z,16.9
2018-06-25T02:00:39.375Z,16.86
2018-06-25T02:01:39.335Z,16.9
2018-06-25T02:02:39.333Z,16.95
2018-06-25T02:03:39.347Z,16.98
2018-06-25T02:04:39.315Z,17.01
2018-06-25T02:05:39.329Z,17.01
2018-06-25T02:06:39.822Z,17.01
2018-06-25T02:07:39.309Z,17.01
2018-06-25T02:08:39.381Z,17.02
2018-06-25T02:09:39.323Z,16.98
2018-06-25T02:10:39.364Z,17.01
2018-06-25T02:11:39.322Z,17.02
2018-06-25T02:12:39.411Z,17.05
2018-06-25T02:13:39.317Z,17.08
2018-06-25T02:14:39.422Z,17.12
2018-06-25T02:15:39.507Z,17.11
2018-06-25T02:16:39.366Z,17.14
2018-06-25T02:17:39.340Z,17.08
2018-06-25T02:18:39.333Z,17.11
2018-06-25T02:19:39.385Z,17.12
2018-06-25T02:20:39.327Z,17.14
2018-06-25T02:21:40.033Z,17.09
2018-06-25T02:22:39.480Z,17.11
2018-06-25T02:23:39.383Z,17.14
2018-06-25T02:24:39.345Z,17.14
2018-06-25T02:25:39.363Z,17.14
2018-06-25T02:26:39.360Z,17.12
2018-06-25T02:27:39.331Z,17.16
2018-06-25T02:28:39.377Z,17.16
2018-06-25T02:29:39.346Z,17.14
2018-06-25T02:30:39.335Z,17.09
2018-06-25T02:31:39.340Z,17.07
2018-06-25T02:32:39.368Z,17.11
2018-06-25T02:33:39.372Z,17.05
2018-06-25T02:34:39.499Z,17.08
2018-06-25T02:35:39.363Z,17.09
2018-06-25T02:36:39.328Z,17.12
2018-06-25T02:37:39.338Z,17.14
2018-06-25T02:38:39.667Z,17.14
2018-06-25T02:39:39.341Z,17.12
2018-06-25T02:40:39.344Z,17.12
2018-06-25T02:41:39.355Z,17.12
2018-06-25T02:42:39.374Z,17.11
2018-06-25T02:43:39.372Z,17.14
2018-06-25T02:44:39.356Z,17.18
2018-06-25T02:45:39.337Z,17.16
2018-06-25T02:46:39.360Z,17.15
2018-06-25T02:47:39.354Z,17.16
2018-06-25T02:48:39.357Z,17.16
2018-06-25T02:49:39.384Z,17.09
2018-06-25T02:50:39.357Z,17.12
2018-06-25T02:51:39.367Z,17.12
2018-06-25T02:52:39.415Z,17.14
2018-06-25T02:53:39.403Z,17.15
2018-06-25T02:54:39.364Z,17.14
2018-06-25T02:55:39.346Z,17.14
2018-06-25T02:56:39.358Z,17.14
2018-06-25T02:57:39.466Z,17.15
2018-06-25T02:58:39.350Z,17.15
2018-06-25T02:59:39.446Z,17.14
2018-06-25T03:00:39.367Z,17.08
2018-06-25T03:01:39.430Z,17.04
2018-06-25T03:02:39.362Z,16.98
2018-06-25T03:03:39.352Z,16.97
2018-06-25T03:04:39.436Z,16.91
2018-06-25T03:05:39.401Z,16.92
2018-06-25T03:06:39.399Z,16.91
2018-06-25T03:07:39.363Z,16.92
2018-06-25T03:08:39.391Z,16.91
2018-06-25T03:09:39.375Z,16.86
2018-06-25T03:10:39.363Z,16.88
2018-06-25T03:11:39.389Z,16.9
2018-06-25T03:12:39.343Z,16.91
2018-06-25T03:13:39.379Z,16.91
2018-06-25T03:14:39.356Z,16.83
2018-06-25T03:15:39.493Z,16.87
2018-06-25T03:16:39.369Z,16.87
2018-06-25T03:17:39.387Z,16.88
2018-06-25T03:18:39.358Z,16.75
2018-06-25T03:19:39.513Z,16.73
2018-06-25T03:20:39.368Z,16.74
2018-06-25T03:21:39.375Z,16.75
2018-06-25T03:22:39.392Z,16.77
2018-06-25T03:23:39.387Z,16.77
2018-06-25T03:24:39.416Z,16.74
2018-06-25T03:25:39.362Z,16.78
2018-06-25T03:26:39.370Z,16.75
2018-06-25T03:27:39.347Z,16.77
2018-06-25T03:28:39.451Z,16.73
2018-06-25T03:29:39.382Z,16.73
2018-06-25T03:30:39.399Z,16.7
2018-06-25T03:31:39.407Z,16.67
2018-06-25T03:32:39.395Z,16.68
2018-06-25T03:33:39.387Z,16.67
2018-06-25T03:34:39.395Z,16.56
2018-06-25T03:35:39.371Z,16.46
2018-06-25T03:36:39.705Z,16.52
2018-06-25T03:37:39.377Z,16.49
2018-06-25T03:38:39.408Z,16.56
2018-06-25T03:39:39.396Z,16.54
2018-06-25T03:40:39.448Z,16.56
2018-06-25T03:41:39.369Z,16.57
2018-06-25T03:42:39.567Z,16.59
2018-06-25T03:43:39.412Z,16.56
2018-06-25T03:44:39.387Z,16.54
2018-06-25T03:45:39.394Z,16.52
2018-06-25T03:46:39.401Z,16.5
2018-06-25T03:47:39.388Z,16.53
2018-06-25T03:48:39.425Z,16.54
2018-06-25T03:49:39.411Z,16.56
2018-06-25T03:50:39.437Z,16.56
2018-06-25T03:51:39.439Z,16.57
2018-06-25T03:52:39.406Z,16.59
2018-06-25T03:53:39.406Z,16.62
2018-06-25T03:54:39.393Z,16.59
2018-06-25T03:55:39.409Z,16.6
2018-06-25T03:56:39.409Z,16.59
2018-06-25T03:57:39.406Z,16.54
2018-06-25T03:58:39.379Z,16.56
2018-06-25T03:59:39.390Z,16.56
2018-06-25T04:00:39.383Z,16.6
2018-06-25T04:01:39.425Z,16.57
2018-06-25T04:02:39.510Z,16.6
2018-06-25T04:03:39.403Z,16.59
2018-06-25T04:04:39.570Z,16.59
2018-06-25T04:05:39.389Z,16.59
2018-06-25T04:06:39.398Z,16.56
2018-06-25T04:07:39.404Z,16.57
2018-06-25T04:08:39.425Z,16.56
2018-06-25T04:09:39.456Z,16.52
2018-06-25T04:10:39.456Z,16.53
2018-06-25T04:11:39.461Z,16.47
2018-06-25T04:12:39.488Z,16.45
2018-06-25T04:13:39.399Z,16.45
2018-06-25T04:14:39.451Z,16.42
2018-06-25T04:15:39.389Z,16.42
2018-06-25T04:16:39.381Z,16.43
2018-06-25T04:17:39.445Z,16.42
2018-06-25T04:18:39.460Z,16.42
2018-06-25T04:19:39.430Z,16.4
2018-06-25T04:20:39.635Z,16.39
2018-06-25T04:21:39.441Z,16.39
2018-06-25T04:22:39.453Z,16.43
2018-06-25T04:23:39.600Z,16.42
2018-06-25T04:24:39.742Z,16.43
2018-06-25T04:25:39.431Z,16.43
2018-06-25T04:26:39.402Z,16.45
2018-06-25T04:27:39.416Z,16.46
2018-06-25T04:28:39.497Z,16.47
2018-06-25T04:29:39.583Z,16.47
2018-06-25T04:30:39.780Z,16.47
2018-06-25T04:31:39.403Z,16.49
2018-06-25T04:32:39.459Z,16.52
2018-06-25T04:33:39.417Z,16.5
2018-06-25T04:34:39.425Z,16.47
2018-06-25T04:35:39.567Z,16.5
2018-06-25T04:36:39.547Z,16.49
2018-06-25T04:37:39.432Z,16.49
2018-06-25T04:38:39.443Z,16.49
2018-06-25T04:39:39.620Z,16.5
2018-06-25T04:40:39.426Z,16.53
2018-06-25T04:41:39.411Z,16.53
2018-06-25T04:42:39.424Z,16.5
2018-06-25T04:43:39.431Z,16.5
2018-06-25T04:44:39.458Z,16.52
2018-06-25T04:45:39.504Z,16.52
2018-06-25T04:46:39.488Z,16.52
2018-06-25T04:47:39.416Z,16.52
2018-06-25T04:48:39.585Z,16.53
2018-06-25T04:49:39.569Z,16.53
2018-06-25T04:50:39.401Z,16.53
2018-06-25T04:51:39.468Z,16.54
2018-06-25T04:52:39.420Z,16.5
2018-06-25T04:53:39.401Z,16.56
2018-06-25T04:54:39.419Z,16.54
2018-06-25T04:55:39.416Z,16.54
2018-06-25T04:56:39.425Z,16.54
2018-06-25T04:57:39.480Z,16.5
2018-06-25T04:58:39.480Z,16.45
2018-06-25T04:59:39.443Z,16.47
2018-06-25T05:00:39.421Z,16.42
2018-06-25T05:01:39.470Z,16.43
2018-06-25T05:02:39.417Z,16.43
2018-06-25T05:03:39.426Z,16.4
2018-06-25T05:04:39.440Z,16.4
2018-06-25T05:05:39.421Z,16.43
2018-06-25T05:06:39.413Z,16.25
2018-06-25T05:07:39.437Z,16.31
2018-06-25T05:08:39.436Z,16.36
2018-06-25T05:09:39.442Z,16.37
2018-06-25T05:10:39.461Z,16.39
2018-06-25T05:11:39.475Z,16.4
2018-06-25T05:12:39.585Z,16.36
2018-06-25T05:13:39.467Z,16.39
2018-06-25T05:14:39.486Z,16.4
2018-06-25T05:15:39.453Z,16.4
2018-06-25T05:16:39.479Z,16.45
2018-06-25T05:17:39.418Z,16.4
2018-06-25T05:18:39.430Z,16.36
2018-06-25T05:19:39.449Z,16.36
2018-06-25T05:20:39.475Z,16.35
2018-06-25T05:21:39.553Z,16.37
2018-06-25T05:22:39.460Z,16.4
2018-06-25T05:23:39.485Z,16.45
2018-06-25T05:24:39.432Z,16.46
2018-06-25T05:25:39.473Z,16.47
2018-06-25T05:26:39.557Z,16.49
2018-06-25T05:27:39.456Z,16.53
2018-06-25T05:28:39.488Z,16.57
2018-06-25T05:29:39.476Z,16.53
2018-06-25T05:30:39.643Z,16.52
2018-06-25T05:31:39.489Z,16.5
2018-06-25T05:32:39.614Z,16.54
2018-06-25T05:33:39.470Z,16.56
2018-06-25T05:34:39.611Z,16.59
2018-06-25T05:35:39.541Z,16.62
2018-06-25T05:36:39.620Z,16.59
2018-06-25T05:37:39.439Z,16.59
2018-06-25T05:38:39.443Z,16.6
2018-06-25T05:39:39.667Z,16.62
2018-06-25T05:40:39.460Z,16.62
2018-06-25T05:41:39.451Z,16.63
2018-06-25T05:42:39.565Z,16.66
2018-06-25T05:43:39.454Z,16.62
2018-06-25T05:44:39.449Z,16.63
2018-06-25T05:45:39.465Z,16.66
2018-06-25T05:46:39.460Z,16.66
2018-06-25T05:47:39.479Z,16.66
2018-06-25T05:48:39.486Z,16.68
2018-06-25T05:49:39.514Z,16.68
2018-06-25T05:50:39.499Z,16.71
2018-06-25T05:51:39.459Z,16.73
2018-06-25T05:52:39.446Z,16.7
2018-06-25T05:53:39.527Z,16.67
2018-06-25T05:54:39.463Z,16.68
2018-06-25T05:55:39.513Z,16.71
2018-06-25T05:56:39.485Z,16.68
2018-06-25T05:57:39.477Z,16.73
2018-06-25T05:58:39.639Z,16.63
2018-06-25T05:59:39.571Z,16.68
2018-06-25T06:00:39.466Z,16.66
2018-06-25T06:01:39.475Z,16.66
2018-06-25T06:02:39.772Z,16.64
2018-06-25T06:03:39.470Z,16.64
2018-06-25T06:04:39.492Z,16.66
2018-06-25T06:05:39.498Z,16.71
2018-06-25T06:06:39.487Z,16.71
2018-06-25T06:07:39.483Z,16.67
2018-06-25T06:08:39.457Z,16.6
2018-06-25T06:09:39.470Z,16.56
2018-06-25T06:10:39.459Z,16.59
2018-06-25T06:11:39.623Z,16.57
2018-06-25T06:12:39.547Z,16.59
2018-06-25T06:13:40.661Z,16.64
2018-06-25T06:14:40.676Z,16.7
2018-06-25T06:15:39.499Z,16.68
2018-06-25T06:16:39.475Z,16.71
2018-06-25T06:17:39.587Z,16.73
2018-06-25T06:18:39.570Z,16.73
2018-06-25T06:19:39.587Z,16.68
2018-06-25T06:20:39.500Z,16.67
2018-06-25T06:21:39.793Z,16.68
2018-06-25T06:22:39.527Z,16.6
2018-06-25T06:23:39.485Z,16.62
2018-06-25T06:24:39.615Z,16.57
2018-06-25T06:25:39.473Z,16.6
2018-06-25T06:26:39.625Z,16.62
2018-06-25T06:27:39.652Z,16.68
2018-06-25T06:28:39.492Z,16.63
2018-06-25T06:29:39.667Z,16.63
2018-06-25T06:30:39.682Z,16.7
2018-06-25T06:31:40.091Z,16.7
2018-06-25T06:32:40.595Z,16.68
2018-06-25T06:33:39.675Z,16.71
2018-06-25T06:34:39.570Z,16.71
2018-06-25T06:35:39.582Z,16.73
2018-06-25T06:36:39.498Z,16.74
2018-06-25T06:37:39.713Z,16.77
2018-06-25T06:38:39.609Z,16.78
2018-06-25T06:39:39.712Z,16.74
2018-06-25T06:40:39.652Z,16.75
2018-06-25T06:41:39.729Z,16.73
2018-06-25T06:42:39.579Z,16.74
2018-06-25T06:43:39.643Z,16.81
2018-06-25T06:44:39.650Z,16.8
2018-06-25T06:45:39.555Z,16.78
2018-06-25T06:46:39.758Z,16.77
2018-06-25T06:47:39.660Z,16.83
2018-06-25T06:48:39.661Z,16.87
2018-06-25T06:49:39.684Z,16.87
2018-06-25T06:50:39.581Z,16.9
2018-06-25T06:51:39.595Z,16.9
2018-06-25T06:52:39.602Z,16.87
2018-06-25T06:53:54.486Z,16.83
2018-06-25T06:54:39.618Z,16.84
2018-06-25T06:55:39.511Z,16.81
2018-06-25T06:57:39.687Z,16.88
2018-06-25T06:58:39.502Z,16.91
2018-06-25T06:59:39.499Z,16.94
2018-06-25T07:00:39.691Z,16.94
2018-06-25T07:01:39.503Z,16.97
2018-06-25T07:02:39.767Z,16.91
2018-06-25T07:03:39.525Z,16.94
2018-06-25T07:04:39.688Z,16.98
2018-06-25T07:05:39.595Z,16.98
2018-06-25T07:06:39.509Z,16.9
2018-06-25T07:07:39.502Z,16.9
2018-06-25T07:08:39.641Z,16.94
2018-06-25T07:09:39.659Z,16.92
2018-06-25T07:10:39.557Z,16.92
2018-06-25T07:11:39.707Z,16.9
2018-06-25T07:12:39.686Z,16.92
2018-06-25T07:13:39.540Z,16.95
2018-06-25T07:14:39.500Z,16.99
2018-06-25T07:15:39.687Z,17.02
2018-06-25T07:16:39.516Z,17.08
2018-06-25T07:17:39.576Z,17.11
2018-06-25T07:18:39.536Z,17.14
2018-06-25T07:19:39.531Z,17.11
2018-06-25T07:20:39.650Z,17.01
2018-06-25T07:21:39.531Z,16.98
2018-06-25T07:22:39.660Z,16.98
2018-06-25T07:23:39.510Z,17.04
2018-06-25T07:24:39.719Z,17.07
2018-06-25T07:25:39.543Z,17.08
2018-06-25T07:26:39.527Z,17.08
2018-06-25T07:27:39.528Z,17.05
2018-06-25T07:28:39.519Z,17.07
2018-06-25T07:29:39.524Z,17.08
2018-06-25T07:30:39.585Z,17.12
2018-06-25T07:31:39.532Z,17.15
2018-06-25T07:32:39.509Z,17.21
2018-06-25T07:33:39.531Z,17.19
2018-06-25T07:34:39.506Z,17.23
2018-06-25T07:35:39.548Z,17.25
2018-06-25T07:36:39.513Z,17.23
2018-06-25T07:37:39.523Z,17.23
2018-06-25T07:38:39.538Z,17.29
2018-06-25T07:39:39.557Z,17.36
2018-06-25T07:40:39.591Z,17.39
2018-06-25T07:41:39.571Z,17.43
2018-06-25T07:42:39.536Z,17.39
2018-06-25T07:43:39.523Z,17.37
2018-06-25T07:44:39.748Z,17.46
2018-06-25T07:45:39.525Z,17.43
2018-06-25T07:46:39.528Z,17.37
2018-06-25T07:47:39.576Z,17.44
2018-06-25T07:48:39.559Z,17.49
2018-06-25T07:49:39.538Z,17.54
2018-06-25T07:50:39.539Z,17.58
2018-06-25T07:51:39.551Z,17.63
2018-06-25T07:52:39.529Z,17.64
2018-06-25T07:53:39.916Z,17.63
2018-06-25T07:54:39.542Z,17.64
2018-06-25T07:55:39.554Z,17.74
2018-06-25T07:56:39.689Z,17.73
2018-06-25T07:57:39.618Z,17.76
2018-06-25T07:58:39.570Z,17.77
2018-06-25T07:59:39.578Z,17.81
2018-06-25T08:00:39.531Z,17.78
2018-06-25T08:01:39.635Z,17.8
2018-06-25T08:02:39.548Z,17.82
2018-06-25T08:03:39.705Z,17.74
2018-06-25T08:04:39.554Z,17.8
2018-06-25T08:05:39.559Z,17.88
2018-06-25T08:06:39.558Z,17.92
2018-06-25T08:07:39.565Z,17.91
2018-06-25T08:08:39.716Z,17.97
2018-06-25T08:09:39.737Z,17.98
2018-06-25T08:10:39.818Z,17.95
2018-06-25T08:11:39.628Z,17.88
2018-06-25T08:12:39.637Z,17.95
2018-06-25T08:13:39.733Z,18.01
2018-06-25T08:14:39.570Z,18.06
2018-06-25T08:15:39.731Z,18.06
2018-06-25T08:16:39.996Z,17.97
2018-06-25T08:17:39.559Z,17.91
2018-06-25T08:18:39.743Z,17.92
2018-06-25T08:19:39.573Z,17.92
2018-06-25T08:20:39.771Z,17.94
2018-06-25T08:21:39.705Z,17.94
2018-06-25T08:22:39.558Z,17.95
2018-06-25T08:23:39.550Z,17.92
2018-06-25T08:24:39.549Z,17.92
2018-06-25T08:25:39.555Z,17.99
2018-06-25T08:26:39.587Z,17.92
2018-06-25T08:27:39.714Z,17.95
2018-06-25T08:28:39.560Z,17.94
2018-06-25T08:29:39.722Z,17.92
2018-06-25T08:30:39.553Z,17.94
2018-06-25T08:31:39.765Z,17.89
2018-06-25T08:32:39.558Z,17.98
2018-06-25T08:33:39.539Z,17.97
2018-06-25T08:34:39.566Z,17.99
2018-06-25T08:35:39.558Z,18.01
2018-06-25T08:36:39.582Z,18.06
2018-06-25T08:37:39.632Z,18.12
2018-06-25T08:38:39.553Z,18.2
2018-06-25T08:39:39.556Z,18.26
2018-06-25T08:40:39.554Z,18.33
2018-06-25T08:41:39.731Z,18.32
2018-06-25T08:42:39.581Z,18.39
2018-06-25T08:43:39.775Z,18.59
2018-06-25T08:44:39.751Z,18.59
2018-06-25T08:45:39.586Z,18.57
2018-06-25T08:46:39.594Z,18.57
2018-06-25T08:47:39.571Z,18.57
2018-06-25T08:48:39.574Z,18.6
2018-06-25T08:49:40.823Z,18.66
2018-06-25T08:50:39.590Z,18.61
2018-06-25T08:51:39.677Z,18.6
2018-06-25T08:52:39.568Z,18.67
2018-06-25T08:53:39.597Z,18.78
2018-06-25T08:54:39.608Z,18.89
2018-06-25T08:55:39.770Z,18.77
2018-06-25T08:56:39.591Z,18.78
2018-06-25T08:57:39.567Z,18.85
2018-06-25T08:58:39.676Z,18.88
2018-06-25T08:59:39.581Z,18.95
2018-06-25T09:00:39.584Z,18.89
2018-06-25T09:01:39.599Z,18.89
2018-06-25T09:02:39.666Z,19.15
2018-06-25T09:03:39.590Z,19.33
2018-06-25T09:04:39.687Z,19.3
2018-06-25T09:05:39.644Z,19.19
2018-06-25T09:06:39.593Z,19.09
2018-06-25T09:07:39.606Z,19.1
2018-06-25T09:08:39.618Z,19.15
2018-06-25T09:09:39.792Z,19.22
2018-06-25T09:10:39.612Z,19.27
2018-06-25T09:11:39.662Z,19.19
2018-06-25T09:12:39.570Z,19.19
2018-06-25T09:13:39.611Z,19.22
2018-06-25T09:14:39.753Z,19.34
2018-06-25T09:15:39.836Z,19.36
2018-06-25T09:16:39.583Z,19.4
2018-06-25T09:17:39.754Z,19.42
2018-06-25T09:18:39.643Z,19.47
2018-06-25T09:19:39.581Z,19.46
2018-06-25T09:20:39.585Z,19.43
2018-06-25T09:21:39.591Z,19.47
2018-06-25T09:22:39.741Z,19.44
2018-06-25T09:23:39.607Z,19.37
2018-06-25T09:24:39.605Z,19.34
2018-06-25T09:25:39.597Z,19.4
2018-06-25T09:26:39.594Z,19.47
2018-06-25T09:27:39.831Z,19.53
2018-06-25T09:28:39.614Z,19.57
2018-06-25T09:29:39.749Z,19.72
2018-06-25T09:30:39.609Z,19.79
2018-06-25T09:31:39.778Z,19.75
2018-06-25T09:32:39.614Z,19.82
2018-06-25T09:33:39.599Z,19.84
2018-06-25T09:34:39.786Z,19.72
2018-06-25T09:35:39.602Z,19.82
2018-06-25T09:36:39.648Z,19.82
2018-06-25T09:37:39.706Z,19.84
2018-06-25T09:38:39.606Z,19.82
2018-06-25T09:39:39.613Z,19.88
2018-06-25T09:40:39.609Z,19.92
2018-06-25T09:41:40.276Z,19.88
2018-06-25T09:42:39.614Z,19.96
2018-06-25T09:43:39.621Z,19.88
2018-06-25T09:44:39.610Z,19.86
2018-06-25T09:45:39.622Z,19.79
2018-06-25T09:46:39.765Z,19.7
2018-06-25T09:47:39.604Z,19.75
2018-06-25T09:48:39.611Z,19.79
2018-06-25T09:49:39.699Z,19.79
2018-06-25T09:50:39.632Z,19.84
2018-06-25T09:51:39.632Z,19.84
2018-06-25T09:52:39.611Z,19.85
2018-06-25T09:53:39.637Z,19.88
2018-06-25T09:54:39.681Z,19.84
2018-06-25T09:55:39.624Z,20.01
2018-06-25T09:56:39.629Z,20.12
2018-06-25T09:57:39.630Z,20.12
2018-06-25T09:58:39.642Z,20.16
2018-06-25T09:59:39.652Z,20.26
2018-06-25T10:00:39.635Z,20.24
2018-06-25T10:01:39.656Z,19.86
2018-06-25T10:02:39.636Z,19.95
2018-06-25T10:03:39.613Z,19.99
2018-06-25T10:04:39.919Z,19.98
2018-06-25T10:05:39.783Z,20.02
2018-06-25T10:06:39.707Z,20.08
2018-06-25T10:07:39.692Z,20.13
2018-06-25T10:08:39.963Z,20.11
2018-06-25T10:09:39.848Z,20.11
2018-06-25T10:10:40.126Z,20.06
2018-06-25T10:11:39.707Z,20.16
2018-06-25T10:12:39.748Z,20.11
2018-06-25T10:13:39.764Z,20.13
2018-06-25T10:14:39.651Z,20.17
2018-06-25T10:15:39.632Z,20.19
2018-06-25T10:16:40.002Z,19.91
2018-06-25T10:17:39.639Z,19.93
2018-06-25T10:18:39.738Z,20.01
2018-06-25T10:19:39.894Z,20.08
2018-06-25T10:20:39.706Z,20.09
2018-06-25T10:21:39.734Z,20.16
2018-06-25T10:22:39.682Z,20.2
2018-06-25T10:23:39.637Z,20.32
2018-06-25T10:24:39.644Z,20.46
2018-06-25T10:25:39.794Z,20.41
2018-06-25T10:26:39.742Z,20.3
2018-06-25T10:27:39.669Z,20.43
2018-06-25T10:28:39.651Z,20.46
2018-06-25T10:29:39.696Z,20.44
2018-06-25T10:30:39.675Z,20.47
2018-06-25T10:31:39.776Z,20.55
2018-06-25T10:32:39.711Z,20.61
2018-06-25T10:33:39.645Z,20.57
2018-06-25T10:34:39.754Z,20.62
2018-06-25T10:35:39.651Z,20.6
2018-06-25T10:36:39.644Z,20.55
2018-06-25T10:37:39.770Z,20.47
2018-06-25T10:38:39.833Z,20.58
2018-06-25T10:39:39.796Z,20.43
2018-06-25T10:40:39.732Z,20.34
2018-06-25T10:41:39.687Z,20.44
2018-06-25T10:42:40.391Z,20.34
2018-06-25T10:43:39.648Z,20.33
2018-06-25T10:44:40.080Z,20.34
2018-06-25T10:45:39.654Z,20.4
2018-06-25T10:46:39.728Z,20.47
2018-06-25T10:47:39.684Z,20.54
2018-06-25T10:48:39.690Z,20.62
2018-06-25T10:49:39.723Z,20.68
2018-06-25T10:50:39.767Z,20.72
2018-06-25T10:51:39.676Z,20.67
2018-06-25T10:52:39.659Z,20.81
2018-06-25T10:53:39.679Z,20.84
2018-06-25T10:54:39.657Z,20.79
2018-06-25T10:55:39.662Z,20.79
2018-06-25T10:56:39.647Z,20.78
2018-06-25T10:57:39.709Z,20.82
2018-06-25T10:58:39.763Z,20.84
2018-06-25T10:59:40.302Z,20.79
2018-06-25T11:00:39.665Z,20.74
2018-06-25T11:01:39.663Z,20.5
2018-06-25T11:02:39.688Z,20.48
2018-06-25T11:03:39.664Z,20.51
2018-06-25T11:04:39.686Z,20.62
2018-06-25T11:05:39.855Z,20.6
2018-06-25T11:06:39.745Z,20.72
2018-06-25T11:07:40.536Z,20.64
2018-06-25T11:08:39.703Z,20.61
2018-06-25T11:09:39.676Z,20.7
2018-06-25T11:10:39.650Z,20.7
2018-06-25T11:11:39.666Z,20.57
2018-06-25T11:12:39.846Z,20.5
2018-06-25T11:13:39.691Z,20.47
2018-06-25T11:14:39.698Z,20.47
2018-06-25T11:15:39.723Z,20.51
2018-06-25T11:16:39.679Z,20.54
2018-06-25T11:17:39.700Z,20.65
2018-06-25T11:18:39.709Z,20.62
2018-06-25T11:19:39.705Z,20.61
2018-06-25T11:20:39.692Z,20.74
2018-06-25T11:21:39.666Z,20.77
2018-06-25T11:22:39.692Z,20.77
2018-06-25T11:23:39.676Z,20.82
2018-06-25T11:24:39.665Z,20.81
2018-06-25T11:25:39.689Z,20.85
2018-06-25T11:26:39.881Z,20.88
2018-06-25T11:27:40.218Z,20.94
2018-06-25T11:28:39.763Z,20.95
2018-06-25T11:29:39.720Z,21.06
2018-06-25T11:30:39.689Z,21.15
2018-06-25T11:31:39.711Z,21.23
2018-06-25T11:32:39.701Z,21.3
2018-06-25T11:33:39.683Z,21.6
2018-06-25T11:34:40.526Z,21.65
2018-06-25T11:35:39.695Z,21.56
2018-06-25T11:36:39.778Z,21.37
2018-06-25T11:37:39.781Z,21.34
2018-06-25T11:38:39.681Z,21.34
2018-06-25T11:39:39.692Z,21.43
2018-06-25T11:40:39.740Z,21.43
2018-06-25T11:41:39.703Z,21.58
2018-06-25T11:42:39.914Z,21.6
2018-06-25T11:43:39.745Z,21.58
2018-06-25T11:44:39.897Z,21.47
2018-06-25T11:45:39.688Z,21.39
2018-06-25T11:46:39.873Z,21.33
2018-06-25T11:47:39.771Z,21.29
2018-06-25T11:48:39.699Z,21.29
2018-06-25T11:49:39.715Z,21.17
2018-06-25T11:50:39.711Z,21.13
2018-06-25T11:51:40.028Z,21.19
2018-06-25T11:52:39.724Z,21.23
2018-06-25T11:53:39.718Z,21.23
2018-06-25T11:54:39.731Z,21.27
2018-06-25T11:55:39.962Z,21.26
2018-06-25T11:56:39.710Z,21.29
2018-06-25T11:57:39.685Z,21.37
2018-06-25T11:58:39.699Z,21.39
2018-06-25T11:59:39.683Z,21.27
2018-06-25T12:00:39.757Z,21.24
2018-06-25T12:01:39.806Z,21.33
2018-06-25T12:02:40.404Z,21.33
2018-06-25T12:03:39.723Z,21.4
2018-06-25T12:04:39.695Z,21.4
2018-06-25T12:05:39.723Z,21.36
2018-06-25T12:06:39.732Z,21.03
2018-06-25T12:07:39.726Z,20.99
2018-06-25T12:08:39.824Z,21.2
2018-06-25T12:09:39.709Z,21.17
2018-06-25T12:10:40.012Z,21.16
2018-06-25T12:11:39.843Z,21.43
2018-06-25T12:12:39.967Z,21.54
2018-06-25T12:13:40.127Z,21.58
2018-06-25T12:14:39.712Z,21.67
2018-06-25T12:15:39.802Z,21.65
2018-06-25T12:16:39.879Z,21.71
2018-06-25T12:17:39.787Z,21.54
2018-06-25T12:18:39.724Z,21.57
2018-06-25T12:19:40.050Z,21.51
2018-06-25T12:20:39.715Z,21.4
2018-06-25T12:21:39.919Z,21.27
2018-06-25T12:22:39.776Z,21.34
2018-06-25T12:23:40.156Z,21.37
2018-06-25T12:24:39.819Z,21.47
2018-06-25T12:25:39.760Z,21.56
2018-06-25T12:26:39.755Z,21.58
2018-06-25T12:27:39.959Z,21.61
2018-06-25T12:28:39.793Z,21.69
2018-06-25T12:29:40.380Z,21.68
2018-06-25T12:30:39.879Z,21.74
2018-06-25T12:31:39.890Z,21.78
2018-06-25T12:32:39.745Z,21.79
2018-06-25T12:33:39.751Z,21.77
2018-06-25T12:34:40.111Z,21.79
2018-06-25T12:35:39.739Z,21.79
2018-06-25T12:36:40.126Z,21.75
2018-06-25T12:37:39.859Z,21.69
2018-06-25T12:38:40.260Z,21.79
2018-06-25T12:39:39.741Z,21.75
2018-06-25T12:40:39.800Z,21.82
2018-06-25T12:41:39.766Z,21.79
2018-06-25T12:42:39.775Z,21.72
2018-06-25T12:43:39.738Z,21.67
2018-06-25T12:44:39.720Z,21.62
2018-06-25T12:45:39.759Z,21.67
2018-06-25T12:46:39.760Z,21.61
2018-06-25T12:47:39.791Z,21.54
2018-06-25T12:48:39.813Z,21.56
2018-06-25T12:49:39.755Z,21.57
2018-06-25T12:50:39.786Z,21.64
2018-06-25T12:51:39.774Z,21.71
2018-06-25T12:52:39.739Z,21.84
2018-06-25T12:53:39.802Z,21.84
2018-06-25T12:54:39.753Z,21.89
2018-06-25T12:55:39.741Z,21.79
2018-06-25T12:56:39.756Z,21.74